createdAt,value
2019-03-28T00:02:22.771Z,19.90
2019-03-28T00:04:53.840Z,20.23
2019-03-28T00:07:24.341Z,22.40
2019-03-28T00:09:57.537Z,21.33
2019-03-28T00:12:27.360Z,22.17
2019-03-28T00:14:59.398Z,26.00
2019-03-28T00:17:29.341Z,20.10
2019-03-28T00:20:01.495Z,22.33
2019-03-28T00:22:42.178Z,22.33
2019-03-28T00:25:13.806Z,21.97
2019-03-28T00:27:44.201Z,21.17
2019-03-28T00:30:15.417Z,21.63
2019-03-28T00:32:47.870Z,18.50
2019-03-28T00:35:19.168Z,20.97
2019-03-28T00:38:00.092Z,21.67
2019-03-28T00:40:30.419Z,21.33
2019-03-28T00:43:01.101Z,22.77
2019-03-28T00:45:32.497Z,23.57
2019-03-28T00:48:02.374Z,23.07
2019-03-28T00:50:34.774Z,28.47
2019-03-28T00:53:04.555Z,21.50
2019-03-28T00:55:34.567Z,21.37
2019-03-28T00:58:05.645Z,24.43
2019-03-28T01:00:35.286Z,21.00
2019-03-28T01:03:07.030Z,18.87
2019-03-28T01:05:38.099Z,20.43
2019-03-28T01:08:07.706Z,21.77
2019-03-28T01:10:37.397Z,20.20
2019-03-28T01:13:07.266Z,21.97
2019-03-28T01:15:36.915Z,20.07
2019-03-28T01:18:07.583Z,28.43
2019-03-28T01:20:37.265Z,20.97
2019-03-28T01:23:06.842Z,24.77
2019-03-28T01:25:36.470Z,27.17
2019-03-28T01:28:10.349Z,24.70
2019-03-28T01:30:40.021Z,20.93
2019-03-28T01:33:09.619Z,24.13
2019-03-28T01:35:40.671Z,19.73
2019-03-28T01:38:10.351Z,20.27
2019-03-28T01:40:42.356Z,22.03
2019-03-28T01:43:12.134Z,23.30
2019-03-28T01:45:46.031Z,27.37
2019-03-28T01:48:17.084Z,25.90
2019-03-28T01:50:47.297Z,27.93
2019-03-28T01:53:16.868Z,33.87
2019-03-28T01:55:47.515Z,25.37
2019-03-28T01:58:19.193Z,24.40
2019-03-28T02:00:51.176Z,24.33
2019-03-28T02:03:20.895Z,23.27
2019-03-28T02:05:53.110Z,26.10
2019-03-28T02:08:24.884Z,20.77
2019-03-28T02:10:53.992Z,24.40
2019-03-28T02:13:23.684Z,25.40
2019-03-28T02:15:55.329Z,24.47
2019-03-28T02:18:29.223Z,24.17
2019-03-28T02:20:58.834Z,25.17
2019-03-28T02:23:29.982Z,22.43
2019-03-28T02:25:59.553Z,20.90
2019-03-28T02:28:29.305Z,26.10
2019-03-28T02:30:58.919Z,24.07
2019-03-28T02:33:30.814Z,25.47
2019-03-28T02:36:01.810Z,21.90
2019-03-28T02:38:32.337Z,22.13
2019-03-28T02:41:02.041Z,22.87
2019-03-28T02:43:31.672Z,24.37
2019-03-28T02:46:02.690Z,24.07
2019-03-28T02:48:32.534Z,22.33
2019-03-28T02:51:02.287Z,23.90
2019-03-28T02:53:31.999Z,20.80
2019-03-28T02:56:01.668Z,22.80
2019-03-28T02:58:31.258Z,24.27
2019-03-28T03:01:00.861Z,23.47
2019-03-28T03:03:30.456Z,30.20
2019-03-28T03:06:00.102Z,25.13
2019-03-28T03:08:29.693Z,25.80
2019-03-28T03:10:59.320Z,24.60
2019-03-28T03:13:31.236Z,21.83
2019-03-28T03:16:02.060Z,25.63
2019-03-28T03:18:31.643Z,22.07
2019-03-28T03:21:01.347Z,24.10
2019-03-28T03:23:30.971Z,23.40
2019-03-28T03:26:01.130Z,26.33
2019-03-28T03:28:30.695Z,23.63
2019-03-28T03:31:00.277Z,30.17
2019-03-28T03:33:30.113Z,24.60
2019-03-28T03:35:59.798Z,28.93
2019-03-28T03:38:29.383Z,27.93
2019-03-28T03:40:59.031Z,23.03
2019-03-28T03:43:30.895Z,27.23
2019-03-28T03:46:01.979Z,27.20
2019-03-28T03:48:31.602Z,24.27
2019-03-28T03:51:01.234Z,24.43
2019-03-28T03:53:30.839Z,24.30
2019-03-28T03:56:00.484Z,21.90
2019-03-28T03:58:30.093Z,24.10
2019-03-28T04:00:59.701Z,23.03
2019-03-28T04:03:29.655Z,25.53
2019-03-28T04:05:59.345Z,40.03
2019-03-28T04:08:29.364Z,35.57
2019-03-28T04:10:59.010Z,36.47
2019-03-28T04:13:29.659Z,42.50
2019-03-28T04:15:59.318Z,42.63
2019-03-28T04:18:28.937Z,34.33
2019-03-28T04:20:58.532Z,35.07
2019-03-28T04:23:28.380Z,35.57
2019-03-28T04:25:57.950Z,31.33
2019-03-28T04:28:32.149Z,28.97
2019-03-28T04:30:58.920Z,25.43
2019-03-28T04:33:28.832Z,25.37
2019-03-28T04:36:00.154Z,23.60
2019-03-28T04:38:29.772Z,23.10
2019-03-28T04:41:00.331Z,24.83
2019-03-28T04:43:30.040Z,26.17
2019-03-28T04:46:01.246Z,25.63
2019-03-28T04:48:30.909Z,27.90
2019-03-28T04:51:01.337Z,29.23
2019-03-28T04:53:30.928Z,27.07
2019-03-28T04:56:02.139Z,27.53
2019-03-28T04:58:43.756Z,26.47
2019-03-28T05:01:03.865Z,25.57
2019-03-28T05:03:33.523Z,27.23
2019-03-28T05:06:04.231Z,24.70
2019-03-28T05:08:33.860Z,22.57
2019-03-28T05:11:03.501Z,26.33
2019-03-28T05:13:33.171Z,23.60
2019-03-28T05:16:02.760Z,26.30
2019-03-28T05:18:32.422Z,23.83
2019-03-28T05:21:02.085Z,24.37
2019-03-28T05:23:33.748Z,24.23
2019-03-28T05:26:03.374Z,26.30
2019-03-28T05:28:33.013Z,21.57
2019-03-28T05:31:02.684Z,27.23
2019-03-28T05:33:32.322Z,29.60
2019-03-28T05:36:04.451Z,26.40
2019-03-28T05:38:33.968Z,32.00
2019-03-28T05:41:07.403Z,24.43
2019-03-28T05:43:37.177Z,25.83
2019-03-28T05:46:12.070Z,26.70
2019-03-28T05:48:41.730Z,26.60
2019-03-28T05:51:11.951Z,26.57
2019-03-28T05:53:43.966Z,23.47
2019-03-28T05:56:12.905Z,24.03
2019-03-28T05:58:42.541Z,23.57
2019-03-28T06:01:12.190Z,23.07
2019-03-28T06:03:42.467Z,25.57
2019-03-28T06:06:12.275Z,27.23
2019-03-28T06:08:41.890Z,25.17
2019-03-28T06:11:11.449Z,27.50
2019-03-28T06:13:41.099Z,27.30
2019-03-28T06:16:10.730Z,29.50
2019-03-28T06:18:40.336Z,34.03
2019-03-28T06:21:09.907Z,28.50
2019-03-28T06:23:39.638Z,32.47
2019-03-28T06:26:12.736Z,35.47
2019-03-28T06:28:44.014Z,31.27
2019-03-28T06:31:13.655Z,27.63
2019-03-28T06:33:44.850Z,30.73
2019-03-28T06:36:14.590Z,34.53
2019-03-28T06:38:44.347Z,32.67
2019-03-28T06:41:14.034Z,35.50
2019-03-28T06:43:44.912Z,28.97
2019-03-28T06:46:14.606Z,31.03
2019-03-28T06:48:44.257Z,33.37
2019-03-28T06:51:13.955Z,32.47
2019-03-28T06:53:43.674Z,31.43
2019-03-28T06:56:13.266Z,31.83
2019-03-28T06:58:42.891Z,28.90
2019-03-28T07:01:12.499Z,31.17
2019-03-28T07:03:42.240Z,31.73
2019-03-28T07:06:14.581Z,35.90
2019-03-28T07:08:44.247Z,31.53
2019-03-28T07:11:13.838Z,34.07
2019-03-28T07:13:43.435Z,37.80
2019-03-28T07:16:13.039Z,36.00
2019-03-28T07:18:42.696Z,34.80
2019-03-28T07:21:12.364Z,31.00
2019-03-28T07:26:16.732Z,32.17
2019-03-28T07:28:48.641Z,30.33
2019-03-28T07:31:18.531Z,28.93
2019-03-28T07:33:49.389Z,29.20
2019-03-28T07:36:18.904Z,33.67
2019-03-28T07:38:48.804Z,36.67
2019-03-28T07:41:20.221Z,36.33
2019-03-28T07:43:49.852Z,32.67
2019-03-28T07:46:19.468Z,33.50
2019-03-28T07:48:50.072Z,32.83
2019-03-28T07:51:20.761Z,31.00
2019-03-28T07:53:51.803Z,31.63
2019-03-28T07:56:21.710Z,33.20
2019-03-28T07:58:51.356Z,32.30
2019-03-28T08:01:20.995Z,29.47
2019-03-28T08:03:51.888Z,36.00
2019-03-28T08:06:21.496Z,31.53
2019-03-28T08:08:54.485Z,30.60
2019-03-28T08:11:24.318Z,33.33
2019-03-28T08:13:55.913Z,31.50
2019-03-28T08:16:28.699Z,33.27
2019-03-28T08:18:58.008Z,36.00
2019-03-28T08:21:28.532Z,28.27
2019-03-28T08:23:59.487Z,30.97
2019-03-28T08:26:30.416Z,32.13
2019-03-28T08:29:02.678Z,30.37
2019-03-28T08:31:32.310Z,30.73
2019-03-28T08:34:22.683Z,32.00
2019-03-28T08:36:52.393Z,33.37
2019-03-28T08:39:23.218Z,31.57
2019-03-28T08:41:53.132Z,33.07
2019-03-28T08:44:24.793Z,31.73
2019-03-28T08:46:55.025Z,33.40
2019-03-28T08:49:25.019Z,32.77
2019-03-28T08:51:54.874Z,31.20
2019-03-28T08:54:31.242Z,33.10
2019-03-28T08:57:01.265Z,33.90
2019-03-28T08:59:36.821Z,34.67
2019-03-28T09:02:06.568Z,31.23
2019-03-28T09:04:37.842Z,33.40
2019-03-28T09:07:08.398Z,34.17
2019-03-28T09:09:38.015Z,31.97
2019-03-28T09:12:08.474Z,33.03
2019-03-28T09:14:41.800Z,28.80
2019-03-28T09:17:11.440Z,31.87
2019-03-28T09:19:41.220Z,31.13
2019-03-28T09:22:10.792Z,33.47
2019-03-28T09:24:41.376Z,25.90
2019-03-28T09:27:10.999Z,30.80
2019-03-28T09:29:40.580Z,29.23
2019-03-28T09:32:12.166Z,29.33
2019-03-28T09:34:42.792Z,30.63
2019-03-28T09:37:12.376Z,28.10
2019-03-28T09:39:42.141Z,25.77
2019-03-28T09:42:11.732Z,25.00
2019-03-28T09:44:41.354Z,25.37
2019-03-28T09:47:11.006Z,21.63
2019-03-28T09:49:40.689Z,28.97
2019-03-28T09:52:12.023Z,27.07
2019-03-28T09:54:43.220Z,23.33
2019-03-28T09:57:12.800Z,22.73
2019-03-28T09:59:42.416Z,20.17
2019-03-28T10:02:13.529Z,18.10
2019-03-28T10:04:44.462Z,20.07
2019-03-28T10:07:14.072Z,22.37
2019-03-28T10:09:43.851Z,17.07
2019-03-28T10:12:13.425Z,18.43
2019-03-28T10:14:43.071Z,19.53
2019-03-28T10:17:12.708Z,19.40
2019-03-28T10:19:42.389Z,19.57
2019-03-28T10:22:14.422Z,18.87
2019-03-28T10:24:45.182Z,22.63
2019-03-28T10:27:14.742Z,19.77
2019-03-28T10:29:44.414Z,18.23
2019-03-28T10:32:13.938Z,17.10
2019-03-28T10:34:43.575Z,19.40
2019-03-28T10:37:13.190Z,15.30
2019-03-28T10:39:42.863Z,16.07
2019-03-28T10:42:12.455Z,17.07
2019-03-28T10:44:43.205Z,17.70
2019-03-28T10:47:12.860Z,15.60
2019-03-28T10:49:42.534Z,17.17
2019-03-28T10:52:12.211Z,14.07
2019-03-28T10:54:41.880Z,15.70
2019-03-28T10:57:15.475Z,17.60
2019-03-28T10:59:42.777Z,18.80
2019-03-28T11:02:12.661Z,18.73
2019-03-28T11:04:43.396Z,19.50
2019-03-28T11:07:12.986Z,22.70
2019-03-28T11:09:42.612Z,20.27
2019-03-28T11:12:12.242Z,17.70
2019-03-28T11:14:41.866Z,21.50
2019-03-28T11:17:11.460Z,18.80
2019-03-28T11:19:41.033Z,19.90
2019-03-28T11:22:10.610Z,22.73
2019-03-28T11:24:42.028Z,21.90
2019-03-28T11:27:11.652Z,21.80
2019-03-28T11:29:43.083Z,20.37
2019-03-28T11:32:12.729Z,19.07
2019-03-28T11:34:43.615Z,21.10
2019-03-28T11:37:25.273Z,23.33
2019-03-28T11:39:44.543Z,21.03
2019-03-28T11:42:15.264Z,18.47
2019-03-28T11:44:46.161Z,20.13
2019-03-28T11:47:15.792Z,21.70
2019-03-28T11:49:45.392Z,18.87
2019-03-28T11:52:15.003Z,16.57
2019-03-28T11:54:44.627Z,19.67
2019-03-28T11:57:15.766Z,20.93
2019-03-28T11:59:45.830Z,21.73
2019-03-28T12:02:20.114Z,20.50
2019-03-28T12:04:48.399Z,17.47
2019-03-28T12:07:17.970Z,18.07
2019-03-28T12:09:49.040Z,17.20
2019-03-28T12:12:18.660Z,18.50
2019-03-28T12:14:49.580Z,19.63
2019-03-28T12:17:19.242Z,17.53
2019-03-28T12:19:49.396Z,15.70
2019-03-28T12:22:21.343Z,17.03
2019-03-28T12:24:52.025Z,16.10
2019-03-28T12:27:21.637Z,15.53
2019-03-28T12:29:51.332Z,18.37
2019-03-28T12:32:20.911Z,17.33
2019-03-28T12:34:51.769Z,15.03
2019-03-28T12:37:21.433Z,17.57
2019-03-28T12:39:51.070Z,13.43
2019-03-28T12:42:20.625Z,12.87
2019-03-28T12:44:56.977Z,14.23
2019-03-28T12:47:21.650Z,16.77
2019-03-28T12:49:51.353Z,14.70
2019-03-28T12:52:23.303Z,14.40
2019-03-28T12:54:54.758Z,15.27
2019-03-28T12:57:24.502Z,12.67
2019-03-28T12:59:54.112Z,16.90
2019-03-28T13:02:31.462Z,20.17
2019-03-28T13:04:59.013Z,15.87
2019-03-28T13:07:31.647Z,13.33
2019-03-28T13:10:02.117Z,14.47
2019-03-28T13:12:32.022Z,13.33
2019-03-28T13:15:04.779Z,14.27
2019-03-28T13:17:34.440Z,16.77
2019-03-28T13:20:04.581Z,12.70
2019-03-28T13:22:34.168Z,11.80
2019-03-28T13:25:04.827Z,14.20
2019-03-28T13:27:34.938Z,14.70
2019-03-28T13:30:06.100Z,10.80
2019-03-28T13:32:41.789Z,11.43
2019-03-28T13:35:10.932Z,16.23
2019-03-28T13:37:40.485Z,9.73
2019-03-28T13:40:12.760Z,11.80
2019-03-28T13:42:42.350Z,12.77
2019-03-28T13:45:12.056Z,12.90
2019-03-28T13:47:44.023Z,11.70
2019-03-28T13:50:13.639Z,15.77
2019-03-28T13:52:43.302Z,11.57
2019-03-28T13:55:12.901Z,12.77
2019-03-28T13:57:43.570Z,12.47
2019-03-28T14:00:13.212Z,13.63
2019-03-28T14:02:54.846Z,14.93
2019-03-28T14:05:15.929Z,12.97
2019-03-28T14:07:45.535Z,17.63
2019-03-28T14:10:15.167Z,14.70
2019-03-28T14:12:44.776Z,12.63
2019-03-28T14:15:14.360Z,13.37
2019-03-28T14:17:43.940Z,12.80
2019-03-28T14:20:13.592Z,13.33
2019-03-28T14:22:43.178Z,10.80
2019-03-28T14:25:12.807Z,12.47
2019-03-28T14:27:42.477Z,12.97
2019-03-28T14:30:12.123Z,11.83
2019-03-28T14:32:52.421Z,10.23
2019-03-28T14:35:14.407Z,8.80
2019-03-28T14:37:44.005Z,7.83
2019-03-28T14:40:13.631Z,12.80
2019-03-28T14:42:43.255Z,12.20
2019-03-28T14:45:12.942Z,10.43
2019-03-28T14:47:43.843Z,10.73
2019-03-28T14:50:18.804Z,9.77
2019-03-28T14:52:49.679Z,11.07
2019-03-28T14:55:19.428Z,11.20
2019-03-28T14:57:49.057Z,12.07
2019-03-28T15:00:34.985Z,10.37
2019-03-28T15:03:09.221Z,9.87
2019-03-28T15:05:40.099Z,8.13
2019-03-28T15:08:14.072Z,7.70
2019-03-28T15:10:43.791Z,9.27
2019-03-28T15:13:13.375Z,6.90
2019-03-28T15:15:43.024Z,7.07
2019-03-28T15:18:12.619Z,8.20
2019-03-28T15:20:42.228Z,6.47
2019-03-28T15:23:11.888Z,6.30
2019-03-28T15:25:41.613Z,8.47
2019-03-28T15:28:11.235Z,6.47
2019-03-28T15:30:40.890Z,6.90
2019-03-28T15:33:10.623Z,6.83
2019-03-28T15:35:40.179Z,5.30
2019-03-28T15:38:09.885Z,5.13
2019-03-28T15:40:39.533Z,14.80
2019-03-28T15:43:11.339Z,5.87
2019-03-28T15:45:42.402Z,5.17
2019-03-28T15:48:12.422Z,7.50
2019-03-28T15:50:43.426Z,6.47
2019-03-28T15:53:15.134Z,6.77
2019-03-28T15:55:48.631Z,5.90
2019-03-28T15:58:23.563Z,6.73
2019-03-28T16:00:50.303Z,6.07
2019-03-28T16:03:20.101Z,5.83
2019-03-28T16:05:58.157Z,5.47
2019-03-28T16:08:22.408Z,7.67
2019-03-28T16:10:52.176Z,6.27
2019-03-28T16:13:22.796Z,5.40
2019-03-28T16:15:53.011Z,6.67
2019-03-28T16:18:22.770Z,7.27
2019-03-28T16:20:53.565Z,8.27
2019-03-28T16:23:23.108Z,8.57
2019-03-28T16:25:52.835Z,8.73
2019-03-28T16:28:22.454Z,6.77
2019-03-28T16:30:52.085Z,8.70
2019-03-28T16:33:21.694Z,6.57
2019-03-28T16:35:51.532Z,7.80
2019-03-28T16:38:21.818Z,14.67
2019-03-28T16:40:51.697Z,29.03
2019-03-28T16:43:21.339Z,11.87
2019-03-28T16:45:52.037Z,10.40
2019-03-28T16:48:21.764Z,10.43
2019-03-28T16:50:51.531Z,10.97
2019-03-28T16:53:21.133Z,11.90
2019-03-28T16:55:50.909Z,10.63
2019-03-28T16:58:20.727Z,9.90
2019-03-28T17:00:50.564Z,14.07
2019-03-28T17:03:21.475Z,11.90
2019-03-28T17:05:52.357Z,10.17
2019-03-28T17:08:22.037Z,11.27
2019-03-28T17:10:52.835Z,10.67
2019-03-28T17:13:23.454Z,14.83
2019-03-28T17:15:54.526Z,10.27
2019-03-28T17:18:24.286Z,13.00
2019-03-28T17:20:55.145Z,13.43
2019-03-28T17:23:25.046Z,12.30
2019-03-28T17:25:56.021Z,9.80
2019-03-28T17:28:25.658Z,11.67
2019-03-28T17:30:55.304Z,10.27
2019-03-28T17:33:24.887Z,14.47
2019-03-28T17:35:55.469Z,15.83
2019-03-28T17:38:25.212Z,12.97
2019-03-28T17:40:55.208Z,13.23
2019-03-28T17:43:24.917Z,12.77
2019-03-28T17:45:54.482Z,14.73
2019-03-28T17:48:24.422Z,11.43
2019-03-28T17:50:56.314Z,10.10
2019-03-28T17:53:26.017Z,11.70
2019-03-28T17:55:57.179Z,12.70
2019-03-28T17:58:27.275Z,9.90
2019-03-28T18:00:56.903Z,10.23
2019-03-28T18:03:31.471Z,10.50
2019-03-28T18:06:00.431Z,8.97
2019-03-28T18:08:30.447Z,9.83
2019-03-28T18:11:00.499Z,10.60
2019-03-28T18:13:39.647Z,8.80
2019-03-28T18:16:11.988Z,12.67
2019-03-28T18:18:41.650Z,9.63
2019-03-28T18:21:11.299Z,10.57
2019-03-28T18:23:40.992Z,9.53
2019-03-28T18:26:10.601Z,12.70
2019-03-28T18:28:40.176Z,10.07
2019-03-28T18:31:09.914Z,13.23
2019-03-28T18:33:39.527Z,8.90
2019-03-28T18:36:12.856Z,9.93
2019-03-28T18:38:43.259Z,22.83
2019-03-28T18:41:13.268Z,19.93
2019-03-28T18:43:43.342Z,16.90
2019-03-28T18:46:15.941Z,11.63
2019-03-28T18:48:45.934Z,9.53
2019-03-28T18:51:17.666Z,10.23
2019-03-28T18:53:47.414Z,11.60
2019-03-28T18:56:18.343Z,6.67
2019-03-28T18:58:48.510Z,16.87
2019-03-28T19:01:18.136Z,9.23
2019-03-28T19:03:47.884Z,12.10
2019-03-28T19:06:18.562Z,18.50
2019-03-28T19:08:49.618Z,18.43
2019-03-28T19:11:19.300Z,22.53
2019-03-28T19:13:49.056Z,23.23
2019-03-28T19:16:21.867Z,10.77
2019-03-28T19:18:51.940Z,10.77
2019-03-28T19:21:21.776Z,10.27
2019-03-28T19:23:51.465Z,8.10
2019-03-28T19:26:21.255Z,16.00
2019-03-28T19:29:03.687Z,10.97
2019-03-28T19:31:33.448Z,12.27
2019-03-28T19:34:04.160Z,10.27
2019-03-28T19:36:33.788Z,8.17
2019-03-28T19:39:04.465Z,7.67
2019-03-28T19:41:34.084Z,7.97
2019-03-28T19:44:03.891Z,31.00
2019-03-28T19:46:33.530Z,52.13
2019-03-28T19:49:03.165Z,19.33
2019-03-28T19:51:33.334Z,11.30
2019-03-28T19:54:03.609Z,11.50
2019-03-28T19:56:33.263Z,10.27
2019-03-28T19:59:02.925Z,9.17
2019-03-28T20:01:32.641Z,8.90
2019-03-28T20:04:02.309Z,7.83
2019-03-28T20:06:31.887Z,8.57
2019-03-28T20:09:15.354Z,6.73
2019-03-28T20:11:33.133Z,8.47
2019-03-28T20:14:02.786Z,7.83
2019-03-28T20:16:32.341Z,8.67
2019-03-28T20:19:03.538Z,6.33
2019-03-28T20:21:33.160Z,9.17
2019-03-28T20:24:02.786Z,9.00
2019-03-28T20:26:32.370Z,8.27
2019-03-28T20:29:02.374Z,7.27
2019-03-28T20:31:32.062Z,6.53
2019-03-28T20:34:01.852Z,8.10
2019-03-28T20:36:38.594Z,8.60
2019-03-28T20:39:07.445Z,8.93
2019-03-28T20:41:37.387Z,8.63
2019-03-28T20:44:11.506Z,7.27
2019-03-28T20:46:40.855Z,7.43
2019-03-28T20:49:11.970Z,9.83
2019-03-28T20:51:41.803Z,8.70
2019-03-28T20:54:13.026Z,7.77
2019-03-28T20:56:43.256Z,9.50
2019-03-28T20:59:15.213Z,8.07
2019-03-28T21:01:45.294Z,8.33
2019-03-28T21:04:30.315Z,7.87
2019-03-28T21:06:49.677Z,12.37
2019-03-28T21:09:19.319Z,8.37
2019-03-28T21:11:49.955Z,8.07
2019-03-28T21:14:19.581Z,7.47
2019-03-28T21:16:49.243Z,8.40
2019-03-28T21:19:19.206Z,8.13
2019-03-28T21:21:48.844Z,9.50
2019-03-28T21:24:18.653Z,7.70
2019-03-28T21:26:48.311Z,10.50
2019-03-28T21:29:18.143Z,9.33
2019-03-28T21:31:50.168Z,10.23
2019-03-28T21:34:19.182Z,7.83
2019-03-28T21:36:48.789Z,8.37
2019-03-28T21:39:18.602Z,9.90
2019-03-28T21:41:49.734Z,10.07
2019-03-28T21:44:19.389Z,17.90
2019-03-28T21:46:49.351Z,12.87
2019-03-28T21:49:19.475Z,9.40
2019-03-28T21:51:49.411Z,9.17
2019-03-28T21:54:19.050Z,9.83
2019-03-28T21:56:49.857Z,11.17
2019-03-28T21:59:20.945Z,8.40
2019-03-28T22:01:52.472Z,10.33
2019-03-28T22:04:22.277Z,10.53
2019-03-28T22:06:54.232Z,8.77
2019-03-28T22:09:24.246Z,10.10
2019-03-28T22:11:55.701Z,9.63
2019-03-28T22:14:25.463Z,9.90
2019-03-28T22:16:55.149Z,8.30
2019-03-28T22:19:25.907Z,9.27
2019-03-28T22:21:56.608Z,11.83
2019-03-28T22:24:26.345Z,9.10
2019-03-28T22:26:56.292Z,10.20
2019-03-28T22:29:26.171Z,9.83
2019-03-28T22:31:57.478Z,12.43
2019-03-28T22:34:28.373Z,9.73
2019-03-28T22:36:59.961Z,8.63
2019-03-28T22:39:29.516Z,9.23
2019-03-28T22:42:02.304Z,10.17
2019-03-28T22:44:33.889Z,9.13
2019-03-28T22:47:03.355Z,8.97
2019-03-28T22:49:33.183Z,13.33
2019-03-28T22:52:03.146Z,9.73
2019-03-28T22:54:32.745Z,10.60
2019-03-28T22:57:02.479Z,12.13
2019-03-28T22:59:32.574Z,10.60
2019-03-28T23:02:02.902Z,10.77
2019-03-28T23:04:32.669Z,11.47
2019-03-28T23:07:10.854Z,10.30
2019-03-28T23:09:34.864Z,9.93
2019-03-28T23:12:05.480Z,11.40
2019-03-28T23:14:35.120Z,10.90
2019-03-28T23:17:04.721Z,10.10
2019-03-28T23:19:34.436Z,9.57
2019-03-28T23:22:04.248Z,9.57
2019-03-28T23:24:34.201Z,9.60
2019-03-28T23:27:03.866Z,9.77
2019-03-28T23:29:33.459Z,11.00
2019-03-28T23:32:03.189Z,9.50
2019-03-28T23:34:33.731Z,11.70
2019-03-28T23:37:03.625Z,9.70
2019-03-28T23:39:37.180Z,10.73
2019-03-28T23:42:08.737Z,10.77
2019-03-28T23:44:39.497Z,10.97
2019-03-28T23:47:09.075Z,13.37
2019-03-28T23:49:38.931Z,10.20
2019-03-28T23:52:12.713Z,9.20
2019-03-28T23:54:42.361Z,9.33
2019-03-28T23:57:19.561Z,8.47
2019-03-28T23:59:51.554Z,9.73
